Time;durP1;ratioP1;P1;durP2;ratioP2;P2;SDS_P1;SDS_P2;PMS_P1;PMS_P2;Temp;Humidity;BMP_temperature;BMP_pressure;BME280_temperature;BME280_humidity;BME280_pressure;Samples;Min_cycle;Max_cycle;Signal;HPM_P1;HPM_P2
2022/01/18 00:01:28;;;;;;;34.25;4.55;;;10.00;94.40;;;;;;5035372;28;20037;-71
2022/01/18 00:03:54;;;;;;;33.72;5.10;;;10.00;94.30;;;;;;5034326;28;20104;-71
2022/01/18 00:06:20;;;;;;;33.38;4.22;;;10.00;94.30;;;;;;5034979;28;20096;-71
2022/01/18 00:08:46;;;;;;;32.33;4.88;;;10.00;94.30;;;;;;5034826;28;20031;-71
2022/01/18 00:11:12;;;;;;;37.63;4.13;;;9.90;94.20;;;;;;5034614;28;20037;-71
2022/01/18 00:13:43;;;;;;;27.33;4.07;;;10.00;94.20;;;;;;5034538;28;20473;-71
2022/01/18 00:16:26;;;;;;;33.60;4.57;;;9.90;94.10;;;;;;5034851;28;20069;-71
2022/01/18 00:18:53;;;;;;;28.25;4.75;;;9.90;94.20;;;;;;5034295;28;20473;-71
2022/01/18 00:24:07;;;;;;;25.30;3.55;;;9.90;94.20;;;;;;5034383;28;20453;-71
2022/01/18 00:26:34;;;;;;;37.15;4.13;;;9.80;94.20;;;;;;5034284;28;20049;-71
2022/01/18 00:29:07;;;;;;;26.83;4.25;;;9.80;94.30;;;;;;5034365;28;20039;-71
2022/01/18 00:32:23;;;;;;;27.58;4.30;;;9.80;94.20;;;;;;5034175;28;20504;-71
2022/01/18 00:34:34;;;;;;;21.23;3.47;;;9.80;94.20;;;;;;5020691;28;20030;-71
2022/01/18 00:37:23;;;;;;;22.27;3.42;;;9.80;94.20;;;;;;5034600;28;20065;-71
2022/01/18 00:39:46;;;;;;;38.95;5.15;;;9.80;94.20;;;;;;5023434;28;20121;-71
2022/01/18 00:42:11;;;;;;;20.80;2.95;;;9.70;94.20;;;;;;5034012;28;20109;-71
2022/01/18 00:44:37;;;;;;;28.85;3.35;;;9.70;94.20;;;;;;5034492;28;20028;-71
2022/01/18 00:47:03;;;;;;;29.38;3.72;;;9.70;94.20;;;;;;5033721;28;20083;-71
2022/01/18 00:49:29;;;;;;;28.27;4.05;;;9.60;94.20;;;;;;5034135;28;20042;-71
2022/01/18 00:51:57;;;;;;;27.02;3.70;;;9.60;94.20;;;;;;5033567;28;20052;-71
2022/01/18 00:54:32;;;;;;;25.98;3.83;;;9.60;94.20;;;;;;5033820;28;20056;-71
2022/01/18 00:56:58;;;;;;;29.73;3.38;;;9.60;94.20;;;;;;5033531;28;20389;-71
2022/01/18 00:59:26;;;;;;;29.63;4.18;;;9.50;94.10;;;;;;5033608;28;20095;-71
2022/01/18 01:01:52;;;;;;;36.55;4.97;;;9.50;94.10;;;;;;5033670;28;20048;-71
2022/01/18 01:04:21;;;;;;;28.50;3.70;;;9.50;94.10;;;;;;5033641;28;20025;-71
2022/01/18 01:06:46;;;;;;;27.38;3.45;;;9.50;94.10;;;;;;5032034;28;20037;-71
2022/01/18 01:09:12;;;;;;;22.00;3.47;;;9.40;94.10;;;;;;5033798;28;20439;-71
2022/01/18 01:11:39;;;;;;;35.83;4.38;;;9.50;94.10;;;;;;5033688;28;20081;-71
2022/01/18 01:14:10;;;;;;;30.17;4.07;;;9.40;94.20;;;;;;5033452;28;20067;-71
2022/01/18 01:17:05;;;;;;;32.97;3.45;;;9.40;94.20;;;;;;5032337;28;20033;-71
2022/01/18 01:19:45;;;;;;;27.08;3.72;;;9.40;94.20;;;;;;5033476;28;20377;-70
2022/01/18 01:33:41;;;;;;;41.28;5.20;;;9.40;94.30;;;;;;5033208;28;20057;-71
2022/01/18 01:46:38;;;;;;;36.70;4.20;;;9.30;94.70;;;;;;5029377;28;20030;-71
2022/01/18 01:49:08;;;;;;;34.92;4.57;;;9.30;95.10;;;;;;5032804;28;20492;-71
2022/01/18 01:51:34;;;;;;;30.02;3.85;;;9.30;94.70;;;;;;5032674;28;20564;-71
2022/01/18 01:54:05;;;;;;;36.35;3.95;;;9.30;94.70;;;;;;5033103;28;20025;-70
2022/01/18 01:56:31;;;;;;;46.95;5.47;;;9.30;94.80;;;;;;5032649;28;20036;-71
2022/01/18 01:58:58;;;;;;;41.33;3.97;;;9.30;94.90;;;;;;5033079;28;20029;-71
2022/01/18 02:01:24;;;;;;;60.00;5.75;;;9.30;95.00;;;;;;5032591;28;20468;-71
2022/01/18 02:03:50;;;;;;;37.53;4.72;;;9.40;95.10;;;;;;5031626;28;20029;-71
2022/01/18 02:06:16;;;;;;;31.95;4.50;;;9.30;95.10;;;;;;5032887;28;20033;-71
2022/01/18 02:08:44;;;;;;;25.45;3.58;;;9.30;95.20;;;;;;5032662;28;20124;-71
2022/01/18 02:11:10;;;;;;;33.80;4.15;;;9.30;95.20;;;;;;5032542;28;20045;-70
2022/01/18 02:13:36;;;;;;;35.67;3.63;;;9.30;95.20;;;;;;5032412;28;20028;-71
2022/01/18 02:24:03;;;;;;;28.13;3.15;;;9.30;95.20;;;;;;5032500;28;20025;-71
2022/01/18 02:26:29;;;;;;;25.77;3.88;;;9.30;95.10;;;;;;5032024;28;20057;-70
2022/01/18 02:28:58;;;;;;;20.80;3.50;;;9.40;95.10;;;;;;5032843;28;20116;-71
2022/01/18 02:31:24;;;;;;;25.70;3.40;;;9.40;95.10;;;;;;5032160;28;20444;-71
2022/01/18 02:33:50;;;;;;;23.10;2.72;;;9.30;95.00;;;;;;5032020;28;20033;-71
2022/01/18 02:36:15;;;;;;;23.98;3.45;;;9.40;95.00;;;;;;5032555;28;20033;-71
2022/01/18 02:38:41;;;;;;;15.05;4.15;;;9.40;95.00;;;;;;5031765;28;20515;-71
2022/01/18 02:41:07;;;;;;;35.28;3.08;;;9.30;94.90;;;;;;5032166;28;20083;-71
2022/01/18 02:43:50;;;;;;;34.28;3.35;;;9.30;94.90;;;;;;5032550;28;20120;-71
2022/01/18 02:46:16;;;;;;;32.10;3.88;;;9.30;94.90;;;;;;5031815;28;20393;-71
2022/01/18 02:48:42;;;;;;;32.05;3.58;;;9.40;94.90;;;;;;5031713;28;20073;-71
2022/01/18 02:51:09;;;;;;;30.15;3.72;;;9.40;94.90;;;;;;5032418;28;20519;-71
2022/01/18 02:53:57;;;;;;;21.52;3.10;;;9.40;94.90;;;;;;5031522;28;20535;-71
2022/01/18 02:56:24;;;;;;;16.65;2.53;;;9.40;94.90;;;;;;5032070;28;20038;-71
2022/01/18 02:58:56;;;;;;;23.67;3.60;;;9.40;94.90;;;;;;5031521;28;20033;-71
2022/01/18 03:04:06;;;;;;;16.35;2.53;;;9.30;94.90;;;;;;5032395;28;20465;-71
2022/01/18 03:06:31;;;;;;;17.85;2.97;;;9.30;94.90;;;;;;5031408;28;20068;-71
2022/01/18 03:08:57;;;;;;;38.55;3.33;;;9.30;94.90;;;;;;5032008;28;20079;-71
2022/01/18 03:11:23;;;;;;;23.98;3.70;;;9.40;95.00;;;;;;5031898;28;20041;-72
2022/01/18 03:13:48;;;;;;;14.50;2.60;;;9.40;95.00;;;;;;5032046;28;20025;-71
2022/01/18 03:16:14;;;;;;;19.65;2.70;;;9.40;94.90;;;;;;5033482;28;20370;-71
2022/01/18 03:18:40;;;;;;;12.90;2.63;;;9.40;94.80;;;;;;5034387;28;20028;-71
2022/01/18 03:21:05;;;;;;;21.17;2.75;;;9.40;94.70;;;;;;5035149;28;20099;-71
2022/01/18 03:23:31;;;;;;;29.02;3.20;;;9.50;94.80;;;;;;5035484;28;20021;-71
2022/01/18 03:26:00;;;;;;;29.25;3.95;;;9.40;94.70;;;;;;5035426;28;20457;-71
2022/01/18 03:28:27;;;;;;;17.00;2.85;;;9.40;94.80;;;;;;5035015;28;20034;-71
2022/01/18 03:30:57;;;;;;;18.67;2.78;;;9.40;94.80;;;;;;5035344;28;20473;-71
2022/01/18 03:33:25;;;;;;;16.95;2.17;;;9.50;94.80;;;;;;5022426;28;20040;-70
2022/01/18 03:35:53;;;;;;;18.13;2.50;;;9.50;94.70;;;;;;5034563;28;20033;-71
2022/01/18 03:38:21;;;;;;;23.10;2.92;;;9.50;94.70;;;;;;5034846;28;20072;-71
2022/01/18 03:40:48;;;;;;;18.98;2.42;;;9.60;94.70;;;;;;5035021;28;20463;-71
2022/01/18 03:43:14;;;;;;;23.27;2.38;;;9.50;94.70;;;;;;5034414;28;20037;-71
2022/01/18 03:45:45;;;;;;;15.98;2.92;;;9.50;94.70;;;;;;5032097;28;20037;-71
2022/01/18 03:48:24;;;;;;;21.63;2.88;;;9.60;94.80;;;;;;5021399;28;20356;-71
2022/01/18 03:50:50;;;;;;;17.08;2.83;;;9.60;94.80;;;;;;5034785;28;20084;-71
2022/01/18 03:53:18;;;;;;;21.77;2.22;;;9.70;94.90;;;;;;5034860;28;20121;-71
2022/01/18 03:55:44;;;;;;;24.23;3.38;;;9.70;94.90;;;;;;5020788;28;20036;-71
2022/01/18 03:58:09;;;;;;;17.15;2.20;;;9.80;94.90;;;;;;5034872;28;20037;-71
2022/01/18 04:00:35;;;;;;;17.63;2.53;;;9.80;94.80;;;;;;5034356;28;20030;-71
2022/01/18 04:03:01;;;;;;;31.00;4.28;;;9.80;94.80;;;;;;5034263;28;20493;-71
2022/01/18 04:05:27;;;;;;;16.48;1.90;;;9.80;94.80;;;;;;5034648;28;20068;-74
2022/01/18 04:07:52;;;;;;;11.00;1.88;;;9.80;94.70;;;;;;5034685;28;20064;-71
2022/01/18 04:10:18;;;;;;;15.57;2.00;;;9.80;94.80;;;;;;5034573;28;20057;-71
2022/01/18 04:12:44;;;;;;;18.33;2.70;;;9.80;94.80;;;;;;5034285;28;20037;-71
2022/01/18 04:15:12;;;;;;;25.92;2.28;;;9.90;94.80;;;;;;5034914;28;20037;-71
2022/01/18 04:28:59;;;;;;;12.90;2.08;;;10.00;94.60;;;;;;5034002;28;20030;-71
2022/01/18 04:31:08;;;;;;;9.80;2.05;;;10.00;94.50;;;;;;5030307;28;20041;-71
2022/01/18 04:33:35;;;;;;;13.25;1.85;;;10.00;94.50;;;;;;5033664;28;20465;-71
2022/01/18 04:36:04;;;;;;;24.52;1.90;;;10.00;94.50;;;;;;5033860;28;20017;-71
2022/01/18 04:38:30;;;;;;;15.40;2.17;;;10.00;94.50;;;;;;5033250;28;20021;-71
2022/01/18 04:41:03;;;;;;;17.40;2.03;;;10.00;94.50;;;;;;5033550;28;20393;-71
2022/01/18 04:48:48;;;;;;;13.27;2.00;;;10.10;94.40;;;;;;5033788;28;20025;-71
2022/01/18 04:51:14;;;;;;;18.10;2.38;;;10.10;94.40;;;;;;5033387;28;20049;-71
2022/01/18 04:53:47;;;;;;;23.02;2.33;;;10.10;94.30;;;;;;5033893;28;20040;-71
2022/01/18 04:57:51;;;;;;;17.42;2.85;;;10.10;94.30;;;;;;5034213;28;20029;-71
2022/01/18 04:59:16;;;;;;;17.50;2.38;;;10.10;94.20;;;;;;5033398;28;20116;-71
2022/01/18 05:01:47;;;;;;;19.83;2.70;;;10.10;94.20;;;;;;5033826;28;20033;-71
2022/01/18 05:04:13;;;;;;;22.65;2.80;;;10.20;94.20;;;;;;5033649;28;20119;-71
2022/01/18 05:06:41;;;;;;;16.10;2.30;;;10.20;94.20;;;;;;5033726;28;20549;-71
2022/01/18 05:09:09;;;;;;;16.05;2.90;;;10.20;94.10;;;;;;5033458;28;20507;-71
2022/01/18 05:11:42;;;;;;;12.27;1.77;;;10.20;94.10;;;;;;5033896;28;20128;-71
2022/01/18 05:14:21;;;;;;;10.40;1.90;;;10.20;94.10;;;;;;5033191;28;20033;-71
2022/01/18 05:16:57;;;;;;;9.23;1.88;;;10.30;94.10;;;;;;5033965;28;20037;-71
2022/01/18 05:24:20;;;;;;;16.30;2.25;;;10.20;93.90;;;;;;5033797;28;20037;-71
2022/01/18 05:26:48;;;;;;;12.45;1.98;;;10.20;93.90;;;;;;5032341;28;20057;-71
2022/01/18 05:29:14;;;;;;;14.15;2.70;;;10.20;93.90;;;;;;5033302;28;20140;-71
2022/01/18 05:31:40;;;;;;;13.75;1.75;;;10.30;93.90;;;;;;5033230;28;20064;-71
2022/01/18 05:34:08;;;;;;;16.98;2.08;;;10.20;93.90;;;;;;5032850;28;20042;-70
2022/01/18 05:36:34;;;;;;;16.80;2.45;;;10.30;93.90;;;;;;5031962;28;20121;-72
2022/01/18 05:39:00;;;;;;;17.50;2.72;;;10.30;93.90;;;;;;5032061;28;20112;-71
2022/01/18 05:41:25;;;;;;;15.88;2.10;;;10.30;93.90;;;;;;5032772;28;20068;-71
2022/01/18 05:43:51;;;;;;;12.95;2.05;;;10.30;93.80;;;;;;5032663;28;20425;-72
2022/01/18 05:46:17;;;;;;;12.50;2.25;;;10.30;93.80;;;;;;5032925;28;20041;-72
2022/01/18 05:48:43;;;;;;;12.50;2.72;;;10.30;93.80;;;;;;5032734;28;20041;-71
2022/01/18 05:51:08;;;;;;;7.00;2.33;;;10.30;93.70;;;;;;5031842;28;20117;-71
2022/01/18 05:53:35;;;;;;;6.18;1.33;;;10.30;93.70;;;;;;5032255;28;20424;-72
2022/01/18 05:56:02;;;;;;;9.60;1.58;;;10.40;93.70;;;;;;5030115;28;20025;-72
2022/01/18 05:58:28;;;;;;;15.20;1.58;;;10.50;93.70;;;;;;5031076;28;20101;-72
2022/01/18 06:00:54;;;;;;;10.02;2.03;;;10.40;93.90;;;;;;5031134;28;20108;-71
2022/01/18 06:03:28;;;;;;;7.72;1.80;;;10.40;93.50;;;;;;5030963;28;20033;-71
2022/01/18 06:08:40;;;;;;;10.93;1.70;;;10.50;93.50;;;;;;5031609;28;20050;-71
2022/01/18 06:11:06;;;;;;;14.77;1.70;;;10.50;93.50;;;;;;5031750;28;20107;-71
2022/01/18 06:13:32;;;;;;;10.75;1.88;;;10.40;93.40;;;;;;5032261;28;21329;-72
2022/01/18 06:15:57;;;;;;;6.88;1.20;;;10.40;93.40;;;;;;5031532;28;20034;-70
2022/01/18 06:18:23;;;;;;;15.07;1.42;;;10.40;93.40;;;;;;5031665;28;20021;-69
2022/01/18 06:20:49;;;;;;;11.20;1.88;;;10.40;93.50;;;;;;5031890;28;20082;-69
2022/01/18 06:23:14;;;;;;;6.40;1.50;;;10.40;93.40;;;;;;5031117;28;20080;-69
2022/01/18 06:25:41;;;;;;;6.75;1.40;;;10.40;93.40;;;;;;5031410;28;20809;-69
2022/01/18 06:28:07;;;;;;;7.65;1.30;;;10.40;93.40;;;;;;5029224;28;20021;-70
2022/01/18 06:30:32;;;;;;;9.45;1.70;;;10.40;93.40;;;;;;5031140;28;20063;-70
2022/01/18 06:32:58;;;;;;;6.40;1.88;;;10.40;93.40;;;;;;5029698;28;20037;-70
2022/01/18 06:35:24;;;;;;;8.20;1.50;;;10.40;93.40;;;;;;5028524;28;20048;-70
2022/01/18 06:37:50;;;;;;;13.10;1.90;;;10.40;93.40;;;;;;5028473;28;20025;-70
2022/01/18 06:40:18;;;;;;;12.82;1.25;;;10.40;93.40;;;;;;5029934;28;20456;-70
2022/01/18 06:42:44;;;;;;;10.05;1.98;;;10.40;93.30;;;;;;5030322;28;20154;-70
2022/01/18 06:45:10;;;;;;;8.15;1.65;;;10.40;93.30;;;;;;5030652;28;20063;-71
2022/01/18 06:47:37;;;;;;;3.40;1.15;;;10.40;93.30;;;;;;5030249;28;20531;-72
2022/01/18 06:50:07;;;;;;;6.90;1.70;;;10.40;93.30;;;;;;5033645;28;20064;-73
2022/01/18 06:52:33;;;;;;;7.28;1.40;;;10.30;93.30;;;;;;5035181;28;20033;-69
2022/01/18 06:55:01;;;;;;;8.20;1.63;;;10.40;93.30;;;;;;5035866;28;20036;-69
2022/01/18 06:57:26;;;;;;;6.93;1.40;;;10.30;93.30;;;;;;5035409;28;20026;-69
2022/01/18 06:59:52;;;;;;;8.55;1.80;;;10.30;93.20;;;;;;5035294;28;20039;-69
2022/01/18 07:02:18;;;;;;;10.20;1.83;;;10.30;93.20;;;;;;5035592;28;20029;-69
2022/01/18 07:04:43;;;;;;;10.77;1.65;;;10.30;93.20;;;;;;5035707;28;20029;-69
2022/01/18 07:07:09;;;;;;;3.15;1.20;;;10.30;93.20;;;;;;5035272;28;20113;-69
2022/01/18 07:09:35;;;;;;;3.75;1.38;;;10.30;93.20;;;;;;5036094;28;20079;-69
2022/01/18 07:12:01;;;;;;;4.97;1.65;;;10.30;93.20;;;;;;5034722;28;20052;-69
2022/01/18 07:14:27;;;;;;;4.32;1.38;;;10.30;93.20;;;;;;5035100;28;20033;-69
2022/01/18 07:16:52;;;;;;;4.25;1.05;;;10.30;93.20;;;;;;5035404;28;20128;-69
2022/01/18 07:19:18;;;;;;;5.20;1.00;;;10.30;93.10;;;;;;5022727;28;20117;-69
2022/01/18 07:21:44;;;;;;;5.75;1.25;;;10.20;93.00;;;;;;5035652;28;20033;-69
2022/01/18 07:24:35;;;;;;;3.72;1.17;;;10.20;93.00;;;;;;5035722;28;20361;-69
2022/01/18 07:27:00;;;;;;;5.88;1.17;;;10.10;93.00;;;;;;5034937;28;20110;-69
2022/01/18 07:29:26;;;;;;;7.63;1.33;;;10.10;93.10;;;;;;5035790;28;20025;-69
2022/01/18 07:31:52;;;;;;;5.68;1.33;;;10.10;93.10;;;;;;5035377;28;20397;-69
2022/01/18 07:34:18;;;;;;;3.72;1.35;;;10.10;93.20;;;;;;5035177;28;20036;-69
2022/01/18 07:36:43;;;;;;;5.00;1.00;;;10.10;93.20;;;;;;5035400;28;20033;-69
2022/01/18 07:39:09;;;;;;;7.10;1.20;;;10.00;93.20;;;;;;5035411;28;20131;-69
2022/01/18 07:41:35;;;;;;;7.53;1.50;;;10.10;93.20;;;;;;5022194;28;20037;-69
2022/01/18 07:44:06;;;;;;;1.77;1.10;;;10.10;93.20;;;;;;5035010;28;20037;-69
2022/01/18 07:46:31;;;;;;;8.23;1.45;;;10.00;93.20;;;;;;5035239;28;20037;-69
2022/01/18 07:48:57;;;;;;;6.45;1.10;;;10.00;93.20;;;;;;5034995;28;20036;-69
2022/01/18 07:51:23;;;;;;;4.82;1.13;;;10.00;93.20;;;;;;5035373;28;20459;-69
2022/01/18 07:53:48;;;;;;;6.32;1.58;;;10.00;93.20;;;;;;5035063;28;20083;-69
2022/01/18 07:56:17;;;;;;;14.73;1.55;;;10.00;93.20;;;;;;5034743;28;20061;-69
2022/01/18 07:58:42;;;;;;;4.95;1.35;;;10.00;93.30;;;;;;5035000;28;20083;-71
2022/01/18 08:01:08;;;;;;;7.97;1.65;;;10.00;93.30;;;;;;5033396;28;20025;-70
2022/01/18 08:03:33;;;;;;;5.40;1.25;;;10.00;93.30;;;;;;5029500;28;20471;-71
2022/01/18 08:06:00;;;;;;;5.93;1.40;;;9.90;93.30;;;;;;5028086;28;20392;-72
2022/01/18 08:08:26;;;;;;;5.90;1.20;;;9.90;93.50;;;;;;5034496;28;20033;-70
2022/01/18 08:10:52;;;;;;;12.02;1.80;;;9.80;93.40;;;;;;5034892;28;20464;-69
2022/01/18 08:13:19;;;;;;;5.40;1.67;;;9.80;93.50;;;;;;5021954;28;20116;-69
2022/01/18 08:15:56;;;;;;;5.75;1.00;;;9.80;93.50;;;;;;5034130;28;20030;-75
2022/01/18 08:18:22;;;;;;;6.57;1.27;;;9.80;93.50;;;;;;5034976;28;20038;-70
2022/01/18 08:20:47;;;;;;;9.40;1.58;;;9.80;93.50;;;;;;5034258;28;20532;-68
2022/01/18 08:23:13;;;;;;;5.55;1.42;;;9.80;93.60;;;;;;5033754;28;20044;-67
2022/01/18 08:25:39;;;;;;;5.43;2.30;;;9.80;93.60;;;;;;5034294;28;20037;-68
2022/01/18 08:28:05;;;;;;;7.78;1.60;;;9.70;93.60;;;;;;5034359;28;20075;-67
2022/01/18 08:30:31;;;;;;;7.72;1.70;;;9.70;93.70;;;;;;5033039;28;20101;-68
2022/01/18 08:32:56;;;;;;;10.82;2.40;;;9.70;93.70;;;;;;5033601;28;20049;-67
2022/01/18 08:35:24;;;;;;;8.30;1.45;;;9.70;93.70;;;;;;5034768;28;20034;-67
2022/01/18 08:37:50;;;;;;;8.07;1.73;;;9.70;93.80;;;;;;5033781;28;20088;-67
2022/01/18 08:40:16;;;;;;;7.40;1.75;;;9.70;94.00;;;;;;5034381;28;20034;-68
2022/01/18 08:42:42;;;;;;;11.75;1.50;;;9.70;93.80;;;;;;5034111;28;20107;-68
2022/01/18 08:45:08;;;;;;;3.88;1.60;;;9.70;93.80;;;;;;5034054;28;20037;-67
2022/01/18 08:47:34;;;;;;;9.45;1.80;;;9.70;93.80;;;;;;5034093;28;20116;-67
2022/01/18 08:49:59;;;;;;;6.20;1.58;;;9.70;93.80;;;;;;5034395;28;20036;-67
2022/01/18 08:52:25;;;;;;;12.77;2.15;;;9.70;93.90;;;;;;5033026;28;20369;-68
2022/01/18 08:54:51;;;;;;;4.05;1.83;;;9.70;93.90;;;;;;5034296;28;20041;-67
2022/01/18 08:57:16;;;;;;;4.18;1.25;;;9.70;93.90;;;;;;5033592;28;20030;-67
2022/01/18 08:59:43;;;;;;;8.65;1.70;;;9.70;93.90;;;;;;5033409;28;20033;-67
2022/01/18 09:02:10;;;;;;;13.88;1.98;;;9.60;93.90;;;;;;5033800;28;20492;-68
2022/01/18 09:04:36;;;;;;;13.70;2.10;;;9.60;94.00;;;;;;5033545;28;20033;-67
2022/01/18 09:07:08;;;;;;;9.30;1.55;;;9.70;94.00;;;;;;5033493;28;20028;-67
2022/01/18 09:09:35;;;;;;;13.68;2.17;;;9.60;94.00;;;;;;5033622;28;20087;-68
2022/01/18 09:12:01;;;;;;;7.75;1.55;;;9.70;94.00;;;;;;5032957;28;20042;-67
2022/01/18 09:14:26;;;;;;;7.20;1.30;;;9.70;94.10;;;;;;5033403;28;20354;-67
2022/01/18 09:16:52;;;;;;;5.22;1.60;;;9.60;94.10;;;;;;5033983;28;20469;-68
2022/01/18 09:19:18;;;;;;;9.88;2.25;;;9.60;94.10;;;;;;5032913;28;20427;-68
2022/01/18 09:21:47;;;;;;;7.03;1.58;;;9.60;94.10;;;;;;5033395;28;20037;-67
2022/01/18 09:24:13;;;;;;;10.70;2.30;;;9.60;94.20;;;;;;5033227;28;20036;-67
2022/01/18 09:26:38;;;;;;;8.50;2.38;;;9.60;94.20;;;;;;5032889;28;20053;-67
2022/01/18 09:29:06;;;;;;;12.35;2.63;;;9.70;94.30;;;;;;5034052;28;20038;-68
2022/01/18 09:31:35;;;;;;;2.50;1.42;;;9.60;94.30;;;;;;5033692;28;20051;-68
2022/01/18 09:34:01;;;;;;;20.92;2.22;;;9.60;94.30;;;;;;5032796;28;20025;-68
2022/01/18 09:36:27;;;;;;;5.85;1.67;;;9.60;94.30;;;;;;5033238;28;20034;-68
2022/01/18 09:38:53;;;;;;;8.65;1.98;;;9.60;94.30;;;;;;5033007;28;20033;-68
2022/01/18 09:41:26;;;;;;;4.70;1.70;;;9.60;94.40;;;;;;5032053;28;20096;-68
2022/01/18 09:43:52;;;;;;;8.77;2.30;;;9.60;94.40;;;;;;5033340;28;20060;-67
2022/01/18 09:46:18;;;;;;;3.53;1.48;;;9.60;94.50;;;;;;5032880;28;20493;-68
2022/01/18 09:48:47;;;;;;;3.40;1.33;;;9.50;94.50;;;;;;5032490;28;20029;-67
2022/01/18 09:51:13;;;;;;;8.00;2.13;;;9.60;94.50;;;;;;5032886;28;20119;-68
2022/01/18 09:53:39;;;;;;;2.25;1.33;;;9.60;94.60;;;;;;5032458;28;20477;-68
2022/01/18 09:56:05;;;;;;;4.95;1.20;;;9.60;94.60;;;;;;5032344;28;20484;-68
2022/01/18 09:58:30;;;;;;;0.40;0.40;;;9.60;94.70;;;;;;5032798;28;20042;-68
2022/01/18 10:00:56;;;;;;;2.92;0.60;;;9.60;94.70;;;;;;5032447;28;20021;-69
2022/01/18 10:03:33;;;;;;;0.75;0.75;;;9.50;94.80;;;;;;5031830;28;20037;-68
2022/01/18 10:05:59;;;;;;;1.65;0.63;;;9.50;94.80;;;;;;5020442;28;20034;-74
2022/01/18 10:08:25;;;;;;;9.73;2.20;;;9.60;94.90;;;;;;5032203;28;20524;-70
2022/01/18 10:10:55;;;;;;;9.25;0.98;;;9.50;94.90;;;;;;5029048;28;20026;-70
2022/01/18 10:13:22;;;;;;;1.30;0.73;;;9.60;95.00;;;;;;5024608;28;20045;-70
2022/01/18 10:16:08;;;;;;;8.80;1.60;;;9.60;95.00;;;;;;5031622;28;20109;-70
2022/01/18 10:18:36;;;;;;;3.75;1.10;;;9.50;95.00;;;;;;5032129;28;20037;-70
2022/01/18 10:21:02;;;;;;;0.60;0.60;;;9.60;95.00;;;;;;5032726;28;20025;-70
2022/01/18 10:23:28;;;;;;;2.50;0.90;;;9.60;95.10;;;;;;5031460;28;20033;-71
2022/01/18 10:25:54;;;;;;;10.43;1.88;;;9.50;95.00;;;;;;5031844;28;20065;-71
2022/01/18 10:28:34;;;;;;;4.60;1.40;;;9.60;95.10;;;;;;5026143;28;20030;-71
2022/01/18 10:31:27;;;;;;;3.58;1.08;;;9.60;95.10;;;;;;5023409;28;20171;-71
2022/01/18 10:34:25;;;;;;;7.93;2.67;;;9.60;95.20;;;;;;5032380;28;20476;-71
2022/01/18 10:37:07;;;;;;;7.47;2.38;;;9.50;95.20;;;;;;5031821;28;20026;-71
2022/01/18 10:39:41;;;;;;;2.60;1.73;;;9.60;95.30;;;;;;5031155;28;20461;-71
2022/01/18 10:42:23;;;;;;;1.35;1.00;;;9.60;95.30;;;;;;5031151;28;20108;-72
2022/01/18 10:44:59;;;;;;;0.65;0.65;;;9.60;95.40;;;;;;5031725;28;20124;-71
2022/01/18 10:47:26;;;;;;;3.10;0.80;;;9.50;95.40;;;;;;5031933;28;20064;-71
2022/01/18 10:49:51;;;;;;;1.10;0.75;;;9.50;95.40;;;;;;5031814;28;20442;-69
2022/01/18 10:52:28;;;;;;;3.90;1.75;;;9.60;95.40;;;;;;5032038;28;20072;-69
2022/01/18 10:54:59;;;;;;;3.38;1.17;;;9.60;95.50;;;;;;5032222;28;20045;-69
2022/01/18 10:57:51;;;;;;;2.63;0.63;;;9.60;95.50;;;;;;5031787;28;20033;-70
2022/01/18 11:00:22;;;;;;;8.77;1.05;;;9.60;95.50;;;;;;5031703;28;20052;-69
2022/01/18 11:02:53;;;;;;;6.80;1.90;;;9.60;95.40;;;;;;5031347;28;20033;-70
2022/01/18 11:05:25;;;;;;;5.90;1.17;;;9.60;95.40;;;;;;5031277;28;20034;-70
2022/01/18 11:07:53;;;;;;;6.57;1.83;;;9.60;95.40;;;;;;5029325;28;20045;-70
2022/01/18 11:10:22;;;;;;;8.70;2.47;;;9.60;95.50;;;;;;5032403;28;20043;-69
2022/01/18 11:13:20;;;;;;;6.80;1.10;;;9.60;95.50;;;;;;5031069;28;20045;-69
2022/01/18 11:15:47;;;;;;;2.90;1.50;;;9.60;95.50;;;;;;5031610;28;20427;-69
2022/01/18 11:18:16;;;;;;;5.93;1.05;;;9.60;95.50;;;;;;5030897;28;20045;-69
2022/01/18 11:20:46;;;;;;;9.13;2.03;;;9.60;95.50;;;;;;5031022;28;20080;-69
2022/01/18 11:23:12;;;;;;;1.02;0.82;;;9.70;95.50;;;;;;5031081;28;20078;-70
2022/01/18 11:25:41;;;;;;;11.05;1.98;;;9.70;95.50;;;;;;5030625;28;20045;-69
2022/01/18 11:28:11;;;;;;;1.35;1.00;;;9.70;95.50;;;;;;5031026;28;20041;-70
2022/01/18 11:30:42;;;;;;;0.98;0.98;;;9.70;95.40;;;;;;5031346;28;20029;-69
2022/01/18 11:33:16;;;;;;;7.20;1.98;;;9.70;95.40;;;;;;5030512;28;20461;-69
2022/01/18 11:35:48;;;;;;;14.27;1.80;;;9.80;95.40;;;;;;5030907;28;20022;-70
2022/01/18 11:38:25;;;;;;;9.85;1.55;;;9.80;95.40;;;;;;5035589;28;20029;-70
2022/01/18 11:40:56;;;;;;;2.20;1.88;;;9.70;95.40;;;;;;5034747;28;20112;-70
2022/01/18 11:43:40;;;;;;;6.63;1.67;;;9.80;95.40;;;;;;5035725;28;20040;-70
2022/01/18 11:46:30;;;;;;;1.38;1.10;;;9.80;95.50;;;;;;5034978;28;20116;-70
2022/01/18 11:49:18;;;;;;;3.30;0.95;;;9.80;95.50;;;;;;5034881;28;20477;-70
2022/01/18 11:51:56;;;;;;;5.20;2.05;;;9.80;95.50;;;;;;5035434;28;20037;-71
2022/01/18 11:55:07;;;;;;;3.88;1.73;;;9.80;95.50;;;;;;5034698;28;20030;-73
2022/01/18 11:57:27;;;;;;;5.75;2.45;;;9.80;95.50;;;;;;5022893;28;20037;-73
2022/01/18 12:00:06;;;;;;;12.90;2.55;;;9.80;95.50;;;;;;5035202;28;20033;-72
2022/01/18 12:02:42;;;;;;;5.63;1.90;;;9.80;95.50;;;;;;5015953;28;20030;-72
2022/01/18 12:05:14;;;;;;;16.27;3.20;;;9.80;95.50;;;;;;5032138;28;20097;-71
2022/01/18 12:07:44;;;;;;;6.97;2.05;;;9.80;95.50;;;;;;5034537;28;20489;-70
2022/01/18 12:10:34;;;;;;;6.18;1.70;;;9.80;95.50;;;;;;5034249;28;20076;-72
2022/01/18 12:13:03;;;;;;;2.20;1.27;;;9.90;95.60;;;;;;5033948;28;20070;-70
2022/01/18 12:15:38;;;;;;;7.85;2.50;;;9.90;95.50;;;;;;5033607;28;20041;-71
2022/01/18 12:18:13;;;;;;;5.57;2.42;;;9.90;95.50;;;;;;5034179;28;20043;-71
2022/01/18 12:20:46;;;;;;;2.30;1.20;;;9.80;95.50;;;;;;5033787;28;20044;-70
2022/01/18 12:23:21;;;;;;;8.35;2.03;;;9.80;95.50;;;;;;5033341;28;20037;-71
2022/01/18 12:26:10;;;;;;;3.47;1.40;;;9.80;95.50;;;;;;5031797;28;20489;-71
2022/01/18 12:34:38;;;;;;;6.25;1.52;;;9.80;95.70;;;;;;5033702;28;20037;-70
2022/01/18 12:37:07;;;;;;;8.02;1.90;;;9.80;95.70;;;;;;5033398;28;20033;-70
2022/01/18 12:45:01;;;;;;;4.22;1.92;;;9.70;95.60;;;;;;5033340;28;20048;-70
2022/01/18 12:47:27;;;;;;;11.43;2.30;;;9.80;95.70;;;;;;5033594;28;20032;-70
2022/01/18 12:49:53;;;;;;;13.80;1.83;;;9.70;95.70;;;;;;5033907;28;20076;-70
2022/01/18 12:52:19;;;;;;;2.05;1.20;;;9.70;95.70;;;;;;5033758;28;20460;-70
2022/01/18 12:54:48;;;;;;;4.47;2.38;;;9.70;95.80;;;;;;5034155;28;20034;-70
2022/01/18 12:57:23;;;;;;;8.95;2.95;;;9.70;95.80;;;;;;5033209;28;20401;-70
2022/01/18 13:00:03;;;;;;;4.15;2.10;;;9.70;95.80;;;;;;5033980;28;20065;-70
2022/01/18 13:02:29;;;;;;;6.25;1.67;;;9.70;95.80;;;;;;5021713;28;20037;-70
2022/01/18 13:05:04;;;;;;;7.18;2.67;;;9.70;95.70;;;;;;5033039;28;20385;-71
2022/01/18 13:07:30;;;;;;;8.02;2.38;;;9.70;95.70;;;;;;5033985;28;20705;-70
2022/01/18 13:10:00;;;;;;;16.00;2.78;;;9.70;95.70;;;;;;5033209;28;20041;-70
2022/01/18 13:12:33;;;;;;;14.75;2.63;;;9.60;95.70;;;;;;5032707;28;20040;-70
2022/01/18 13:15:00;;;;;;;8.63;2.83;;;9.70;95.80;;;;;;5033549;28;20140;-73
2022/01/18 13:23:49;;;;;;;6.68;1.63;;;9.60;95.70;;;;;;5033422;28;20028;-70
2022/01/18 13:26:15;;;;;;;12.82;3.17;;;9.70;95.80;;;;;;5032172;28;20076;-70
2022/01/18 13:28:41;;;;;;;9.32;2.42;;;9.60;95.80;;;;;;5033141;28;20084;-78
2022/01/18 13:31:19;;;;;;;4.13;2.17;;;9.60;95.70;;;;;;5032724;28;20083;-70
2022/01/18 13:33:51;;;;;;;8.93;2.33;;;9.70;95.80;;;;;;5032027;28;20034;-71
2022/01/18 13:36:17;;;;;;;13.48;4.20;;;9.60;95.80;;;;;;5032943;28;20022;-70
2022/01/18 13:38:42;;;;;;;16.52;3.45;;;9.70;95.70;;;;;;5032335;28;20043;-71
2022/01/18 13:41:08;;;;;;;10.57;2.50;;;9.70;95.70;;;;;;5030677;28;20029;-71
2022/01/18 13:43:34;;;;;;;7.72;2.55;;;9.70;95.70;;;;;;5030682;28;20092;-71
2022/01/18 13:46:00;;;;;;;9.07;2.67;;;9.70;95.70;;;;;;5030840;28;20028;-69
2022/01/18 13:48:33;;;;;;;9.32;2.65;;;9.70;95.70;;;;;;5031000;28;20429;-69
2022/01/18 13:51:09;;;;;;;2.60;2.05;;;9.70;95.60;;;;;;5031492;28;20026;-69
2022/01/18 13:53:35;;;;;;;10.07;3.65;;;9.70;95.60;;;;;;5030366;28;20086;-69
2022/01/18 13:56:13;;;;;;;7.35;2.35;;;9.70;95.60;;;;;;5031310;28;20025;-69
2022/01/18 13:58:42;;;;;;;11.45;2.47;;;9.70;95.60;;;;;;5031524;28;20044;-69
2022/01/18 14:01:24;;;;;;;3.60;1.25;;;9.70;95.60;;;;;;5030744;28;20036;-70
2022/01/18 14:04:00;;;;;;;6.55;2.20;;;9.70;95.70;;;;;;5031463;28;20065;-70
2022/01/18 14:06:54;;;;;;;6.90;2.88;;;9.70;95.70;;;;;;5030693;28;20021;-69
2022/01/18 14:09:24;;;;;;;6.82;2.97;;;9.80;95.70;;;;;;5031686;28;20119;-68
2022/01/18 14:11:52;;;;;;;6.15;2.72;;;9.80;95.60;;;;;;5032270;28;20037;-69
2022/01/18 14:14:21;;;;;;;9.02;2.67;;;9.80;95.60;;;;;;5030882;28;20030;-69
2022/01/18 14:16:53;;;;;;;6.53;2.58;;;9.80;95.50;;;;;;5030636;28;20029;-69